sensor_id;sensor_type;location;lat;lon;timestamp;P1;durP1;ratioP1;P2;durP2;ratioP2
45420;SDS011;55462;47.042;8.292;2024-02-21T00:02:22;2.20;;;2.00;;
45420;SDS011;55462;47.042;8.292;2024-02-21T00:04:48;2.20;;;2.03;;
45420;SDS011;55462;47.042;8.292;2024-02-21T00:07:13;2.83;;;2.33;;
45420;SDS011;55462;47.042;8.292;2024-02-21T00:09:39;6.60;;;2.13;;
45420;SDS011;55462;47.042;8.292;2024-02-21T00:12:04;1.67;;;1.65;;
45420;SDS011;55462;47.042;8.292;2024-02-21T00:14:30;2.17;;;1.97;;
45420;SDS011;55462;47.042;8.292;2024-02-21T00:16:55;2.20;;;1.80;;
45420;SDS011;55462;47.042;8.292;2024-02-21T00:19:20;2.80;;;1.80;;
45420;SDS011;55462;47.042;8.292;2024-02-21T00:21:46;1.97;;;1.80;;
45420;SDS011;55462;47.042;8.292;2024-02-21T00:24:11;2.80;;;1.87;;
45420;SDS011;55462;47.042;8.292;2024-02-21T00:26:36;1.73;;;1.63;;
45420;SDS011;55462;47.042;8.292;2024-02-21T00:29:02;1.63;;;1.33;;
45420;SDS011;55462;47.042;8.292;2024-02-21T00:31:27;2.33;;;1.60;;
45420;SDS011;55462;47.042;8.292;2024-02-21T00:33:52;3.00;;;1.70;;
45420;SDS011;55462;47.042;8.292;2024-02-21T00:36:18;3.30;;;1.90;;
45420;SDS011;55462;47.042;8.292;2024-02-21T00:38:43;2.80;;;1.57;;
45420;SDS011;55462;47.042;8.292;2024-02-21T00:41:08;1.73;;;1.63;;
45420;SDS011;55462;47.042;8.292;2024-02-21T00:43:33;1.60;;;1.50;;
45420;SDS011;55462;47.042;8.292;2024-02-21T00:45:59;3.03;;;1.43;;
45420;SDS011;55462;47.042;8.292;2024-02-21T00:48:24;1.93;;;1.70;;
45420;SDS011;55462;47.042;8.292;2024-02-21T00:50:50;2.17;;;1.80;;
45420;SDS011;55462;47.042;8.292;2024-02-21T00:53:15;2.77;;;1.67;;
45420;SDS011;55462;47.042;8.292;2024-02-21T00:55:40;2.50;;;1.50;;
45420;SDS011;55462;47.042;8.292;2024-02-21T00:58:06;1.50;;;1.40;;
45420;SDS011;55462;47.042;8.292;2024-02-21T01:00:31;3.20;;;2.00;;
45420;SDS011;55462;47.042;8.292;2024-02-21T01:02:57;2.20;;;1.50;;
45420;SDS011;55462;47.042;8.292;2024-02-21T01:05:22;2.47;;;1.60;;
45420;SDS011;55462;47.042;8.292;2024-02-21T01:07:47;2.00;;;1.77;;
45420;SDS011;55462;47.042;8.292;2024-02-21T01:10:13;1.47;;;1.37;;
45420;SDS011;55462;47.042;8.292;2024-02-21T01:12:38;2.87;;;1.60;;
45420;SDS011;55462;47.042;8.292;2024-02-21T01:15:03;1.90;;;1.33;;
45420;SDS011;55462;47.042;8.292;2024-02-21T01:17:29;2.27;;;1.53;;
45420;SDS011;55462;47.042;8.292;2024-02-21T01:19:55;1.47;;;1.40;;
45420;SDS011;55462;47.042;8.292;2024-02-21T01:22:20;1.87;;;1.70;;
45420;SDS011;55462;47.042;8.292;2024-02-21T01:24:45;1.97;;;1.60;;
45420;SDS011;55462;47.042;8.292;2024-02-21T01:27:10;1.90;;;1.80;;
45420;SDS011;55462;47.042;8.292;2024-02-21T01:29:36;1.93;;;1.67;;
45420;SDS011;55462;47.042;8.292;2024-02-21T01:32:01;2.10;;;1.90;;
45420;SDS011;55462;47.042;8.292;2024-02-21T01:34:27;2.73;;;1.70;;
45420;SDS011;55462;47.042;8.292;2024-02-21T01:36:52;2.17;;;1.50;;
45420;SDS011;55462;47.042;8.292;2024-02-21T01:39:17;2.67;;;1.77;;
45420;SDS011;55462;47.042;8.292;2024-02-21T01:41:43;1.83;;;1.27;;
45420;SDS011;55462;47.042;8.292;2024-02-21T01:44:08;1.60;;;1.50;;
45420;SDS011;55462;47.042;8.292;2024-02-21T01:46:33;1.47;;;1.37;;
45420;SDS011;55462;47.042;8.292;2024-02-21T01:48:59;1.67;;;1.27;;
45420;SDS011;55462;47.042;8.292;2024-02-21T01:51:24;1.00;;;1.00;;
45420;SDS011;55462;47.042;8.292;2024-02-21T01:53:50;1.77;;;1.27;;
45420;SDS011;55462;47.042;8.292;2024-02-21T01:56:16;1.05;;;1.05;;
45420;SDS011;55462;47.042;8.292;2024-02-21T01:58:41;1.38;;;1.27;;
45420;SDS011;55462;47.042;8.292;2024-02-21T02:01:08;1.50;;;1.40;;
45420;SDS011;55462;47.042;8.292;2024-02-21T02:03:33;3.22;;;1.60;;
45420;SDS011;55462;47.042;8.292;2024-02-21T02:05:58;3.22;;;1.40;;
45420;SDS011;55462;47.042;8.292;2024-02-21T02:08:24;1.98;;;1.50;;
45420;SDS011;55462;47.042;8.292;2024-02-21T02:10:49;2.37;;;1.40;;
45420;SDS011;55462;47.042;8.292;2024-02-21T02:13:15;1.17;;;1.08;;
45420;SDS011;55462;47.042;8.292;2024-02-21T02:15:47;1.30;;;1.30;;
45420;SDS011;55462;47.042;8.292;2024-02-21T02:18:13;1.50;;;1.40;;
45420;SDS011;55462;47.042;8.292;2024-02-21T02:20:39;1.40;;;1.30;;
45420;SDS011;55462;47.042;8.292;2024-02-21T02:23:12;1.30;;;1.20;;
45420;SDS011;55462;47.042;8.292;2024-02-21T02:25:51;1.20;;;1.20;;
45420;SDS011;55462;47.042;8.292;2024-02-21T02:28:17;2.15;;;1.25;;
45420;SDS011;55462;47.042;8.292;2024-02-21T02:30:42;2.85;;;1.42;;
45420;SDS011;55462;47.042;8.292;2024-02-21T02:33:08;1.20;;;1.20;;
45420;SDS011;55462;47.042;8.292;2024-02-21T02:35:33;3.22;;;1.30;;
45420;SDS011;55462;47.042;8.292;2024-02-21T02:38:01;1.27;;;1.00;;
45420;SDS011;55462;47.042;8.292;2024-02-21T02:40:26;1.75;;;1.10;;
45420;SDS011;55462;47.042;8.292;2024-02-21T02:42:52;1.40;;;1.30;;
45420;SDS011;55462;47.042;8.292;2024-02-21T02:45:19;2.00;;;1.40;;
45420;SDS011;55462;47.042;8.292;2024-02-21T02:47:45;1.27;;;1.10;;
45420;SDS011;55462;47.042;8.292;2024-02-21T02:50:11;2.20;;;1.90;;
45420;SDS011;55462;47.042;8.292;2024-02-21T02:52:36;3.50;;;1.70;;
45420;SDS011;55462;47.042;8.292;2024-02-21T02:55:02;1.33;;;1.27;;
45420;SDS011;55462;47.042;8.292;2024-02-21T02:57:27;2.30;;;1.60;;
45420;SDS011;55462;47.042;8.292;2024-02-21T02:59:53;2.87;;;1.80;;
45420;SDS011;55462;47.042;8.292;2024-02-21T03:02:18;2.03;;;1.67;;
45420;SDS011;55462;47.042;8.292;2024-02-21T03:04:44;1.67;;;1.57;;
45420;SDS011;55462;47.042;8.292;2024-02-21T03:07:09;1.60;;;1.50;;
45420;SDS011;55462;47.042;8.292;2024-02-21T03:09:36;3.63;;;1.67;;
45420;SDS011;55462;47.042;8.292;2024-02-21T03:12:02;2.47;;;1.67;;
45420;SDS011;55462;47.042;8.292;2024-02-21T03:14:31;1.77;;;1.67;;
45420;SDS011;55462;47.042;8.292;2024-02-21T03:16:57;3.43;;;1.60;;
45420;SDS011;55462;47.042;8.292;2024-02-21T03:19:23;1.30;;;1.30;;
45420;SDS011;55462;47.042;8.292;2024-02-21T03:21:48;1.43;;;1.33;;
45420;SDS011;55462;47.042;8.292;2024-02-21T03:24:15;1.77;;;1.63;;
45420;SDS011;55462;47.042;8.292;2024-02-21T03:26:41;1.10;;;1.10;;
45420;SDS011;55462;47.042;8.292;2024-02-21T03:29:06;1.63;;;1.40;;
45420;SDS011;55462;47.042;8.292;2024-02-21T03:31:32;2.50;;;1.67;;
45420;SDS011;55462;47.042;8.292;2024-02-21T03:33:57;1.53;;;1.43;;
45420;SDS011;55462;47.042;8.292;2024-02-21T03:36:22;2.03;;;1.57;;
45420;SDS011;55462;47.042;8.292;2024-02-21T03:38:48;1.30;;;1.30;;
45420;SDS011;55462;47.042;8.292;2024-02-21T03:41:13;1.77;;;1.47;;
45420;SDS011;55462;47.042;8.292;2024-02-21T03:43:38;1.60;;;1.50;;
45420;SDS011;55462;47.042;8.292;2024-02-21T03:46:04;1.50;;;1.40;;
45420;SDS011;55462;47.042;8.292;2024-02-21T03:48:29;1.20;;;1.20;;
45420;SDS011;55462;47.042;8.292;2024-02-21T03:50:55;1.83;;;1.47;;
45420;SDS011;55462;47.042;8.292;2024-02-21T03:53:20;2.30;;;1.30;;
45420;SDS011;55462;47.042;8.292;2024-02-21T03:55:45;1.07;;;1.07;;
45420;SDS011;55462;47.042;8.292;2024-02-21T03:58:11;1.63;;;1.20;;
45420;SDS011;55462;47.042;8.292;2024-02-21T04:00:36;2.17;;;1.17;;
45420;SDS011;55462;47.042;8.292;2024-02-21T04:03:02;2.10;;;1.10;;
45420;SDS011;55462;47.042;8.292;2024-02-21T04:05:27;1.60;;;1.20;;
45420;SDS011;55462;47.042;8.292;2024-02-21T04:07:53;2.17;;;1.50;;
45420;SDS011;55462;47.042;8.292;2024-02-21T04:10:18;1.07;;;1.00;;
45420;SDS011;55462;47.042;8.292;2024-02-21T04:12:43;2.27;;;1.73;;
45420;SDS011;55462;47.042;8.292;2024-02-21T04:15:09;1.20;;;1.10;;
45420;SDS011;55462;47.042;8.292;2024-02-21T04:17:34;1.40;;;1.30;;
45420;SDS011;55462;47.042;8.292;2024-02-21T04:20:02;1.57;;;1.10;;
45420;SDS011;55462;47.042;8.292;2024-02-21T04:22:33;1.70;;;1.17;;
45420;SDS011;55462;47.042;8.292;2024-02-21T04:24:59;1.27;;;1.17;;
45420;SDS011;55462;47.042;8.292;2024-02-21T04:27:25;0.90;;;0.90;;
45420;SDS011;55462;47.042;8.292;2024-02-21T04:29:50;1.20;;;1.20;;
45420;SDS011;55462;47.042;8.292;2024-02-21T04:32:15;1.13;;;1.00;;
45420;SDS011;55462;47.042;8.292;2024-02-21T04:34:41;0.90;;;0.90;;
45420;SDS011;55462;47.042;8.292;2024-02-21T04:37:06;1.33;;;1.00;;
45420;SDS011;55462;47.042;8.292;2024-02-21T04:39:32;1.10;;;1.00;;
45420;SDS011;55462;47.042;8.292;2024-02-21T04:41:57;1.30;;;1.20;;
45420;SDS011;55462;47.042;8.292;2024-02-21T04:44:23;3.03;;;1.33;;
45420;SDS011;55462;47.042;8.292;2024-02-21T04:46:48;1.27;;;1.20;;
45420;SDS011;55462;47.042;8.292;2024-02-21T04:49:14;1.07;;;1.07;;
45420;SDS011;55462;47.042;8.292;2024-02-21T04:51:40;1.13;;;1.03;;
45420;SDS011;55462;47.042;8.292;2024-02-21T04:54:05;0.80;;;0.80;;
45420;SDS011;55462;47.042;8.292;2024-02-21T04:56:31;1.53;;;1.10;;
45420;SDS011;55462;47.042;8.292;2024-02-21T04:58:56;0.90;;;0.80;;
45420;SDS011;55462;47.042;8.292;2024-02-21T05:01:21;0.97;;;0.80;;
45420;SDS011;55462;47.042;8.292;2024-02-21T05:03:47;0.73;;;0.73;;
45420;SDS011;55462;47.042;8.292;2024-02-21T05:06:12;1.03;;;0.70;;
45420;SDS011;55462;47.042;8.292;2024-02-21T05:08:37;1.10;;;1.07;;
45420;SDS011;55462;47.042;8.292;2024-02-21T05:11:03;0.60;;;0.60;;
45420;SDS011;55462;47.042;8.292;2024-02-21T05:13:28;0.90;;;0.90;;
45420;SDS011;55462;47.042;8.292;2024-02-21T05:15:53;2.20;;;1.20;;
45420;SDS011;55462;47.042;8.292;2024-02-21T05:18:19;3.17;;;1.47;;
45420;SDS011;55462;47.042;8.292;2024-02-21T05:20:45;1.60;;;1.30;;
45420;SDS011;55462;47.042;8.292;2024-02-21T05:23:11;1.63;;;1.40;;
45420;SDS011;55462;47.042;8.292;2024-02-21T05:25:36;2.57;;;1.60;;
45420;SDS011;55462;47.042;8.292;2024-02-21T05:28:01;2.10;;;1.10;;
45420;SDS011;55462;47.042;8.292;2024-02-21T05:30:28;2.07;;;1.10;;
45420;SDS011;55462;47.042;8.292;2024-02-21T05:32:53;1.23;;;1.10;;
45420;SDS011;55462;47.042;8.292;2024-02-21T05:35:19;1.40;;;1.00;;
45420;SDS011;55462;47.042;8.292;2024-02-21T05:37:44;1.70;;;0.90;;
45420;SDS011;55462;47.042;8.292;2024-02-21T05:40:11;0.77;;;0.77;;
45420;SDS011;55462;47.042;8.292;2024-02-21T05:42:38;1.43;;;0.97;;
45420;SDS011;55462;47.042;8.292;2024-02-21T05:45:03;1.30;;;1.17;;
45420;SDS011;55462;47.042;8.292;2024-02-21T05:47:29;1.93;;;0.93;;
45420;SDS011;55462;47.042;8.292;2024-02-21T05:49:54;0.77;;;0.77;;
45420;SDS011;55462;47.042;8.292;2024-02-21T05:52:19;2.43;;;1.17;;
45420;SDS011;55462;47.042;8.292;2024-02-21T05:54:45;2.57;;;1.23;;
45420;SDS011;55462;47.042;8.292;2024-02-21T05:57:10;2.67;;;1.37;;
45420;SDS011;55462;47.042;8.292;2024-02-21T05:59:37;1.83;;;1.43;;
45420;SDS011;55462;47.042;8.292;2024-02-21T06:02:05;1.97;;;1.63;;
45420;SDS011;55462;47.042;8.292;2024-02-21T06:04:30;1.33;;;1.23;;
45420;SDS011;55462;47.042;8.292;2024-02-21T06:06:55;3.80;;;1.40;;
45420;SDS011;55462;47.042;8.292;2024-02-21T06:09:20;1.50;;;1.40;;
45420;SDS011;55462;47.042;8.292;2024-02-21T06:11:46;1.40;;;1.30;;
45420;SDS011;55462;47.042;8.292;2024-02-21T06:14:13;1.90;;;1.50;;
45420;SDS011;55462;47.042;8.292;2024-02-21T06:16:38;1.73;;;1.60;;
45420;SDS011;55462;47.042;8.292;2024-02-21T06:19:03;1.60;;;1.40;;
45420;SDS011;55462;47.042;8.292;2024-02-21T06:21:29;1.53;;;1.43;;
45420;SDS011;55462;47.042;8.292;2024-02-21T06:23:54;1.23;;;1.13;;
45420;SDS011;55462;47.042;8.292;2024-02-21T06:26:20;1.50;;;1.40;;
45420;SDS011;55462;47.042;8.292;2024-02-21T06:28:45;2.63;;;1.20;;
45420;SDS011;55462;47.042;8.292;2024-02-21T06:31:11;1.27;;;0.90;;
45420;SDS011;55462;47.042;8.292;2024-02-21T06:33:37;1.47;;;1.33;;
45420;SDS011;55462;47.042;8.292;2024-02-21T06:36:02;2.10;;;1.00;;
45420;SDS011;55462;47.042;8.292;2024-02-21T06:38:27;1.27;;;1.03;;
45420;SDS011;55462;47.042;8.292;2024-02-21T06:40:53;2.50;;;1.23;;
45420;SDS011;55462;47.042;8.292;2024-02-21T06:43:20;1.20;;;1.10;;
45420;SDS011;55462;47.042;8.292;2024-02-21T06:45:45;1.17;;;0.90;;
45420;SDS011;55462;47.042;8.292;2024-02-21T06:48:15;0.83;;;0.83;;
45420;SDS011;55462;47.042;8.292;2024-02-21T06:50:40;3.97;;;2.37;;
45420;SDS011;55462;47.042;8.292;2024-02-21T06:53:06;1.10;;;1.10;;
45420;SDS011;55462;47.042;8.292;2024-02-21T06:55:31;3.63;;;1.20;;
45420;SDS011;55462;47.042;8.292;2024-02-21T06:57:56;1.10;;;1.03;;
45420;SDS011;55462;47.042;8.292;2024-02-21T07:00:22;1.60;;;1.13;;
45420;SDS011;55462;47.042;8.292;2024-02-21T07:02:48;0.97;;;0.90;;
45420;SDS011;55462;47.042;8.292;2024-02-21T07:05:13;1.17;;;1.13;;
45420;SDS011;55462;47.042;8.292;2024-02-21T07:07:38;0.90;;;0.87;;
45420;SDS011;55462;47.042;8.292;2024-02-21T07:10:05;0.80;;;0.80;;
45420;SDS011;55462;47.042;8.292;2024-02-21T07:12:31;2.10;;;1.20;;
45420;SDS011;55462;47.042;8.292;2024-02-21T07:14:56;1.30;;;0.90;;
45420;SDS011;55462;47.042;8.292;2024-02-21T07:17:21;0.80;;;0.80;;
45420;SDS011;55462;47.042;8.292;2024-02-21T07:19:47;1.00;;;1.00;;
45420;SDS011;55462;47.042;8.292;2024-02-21T07:22:12;1.50;;;1.00;;
45420;SDS011;55462;47.042;8.292;2024-02-21T07:24:37;1.10;;;1.10;;
45420;SDS011;55462;47.042;8.292;2024-02-21T07:27:02;5.03;;;1.37;;
45420;SDS011;55462;47.042;8.292;2024-02-21T07:29:29;1.20;;;1.10;;
45420;SDS011;55462;47.042;8.292;2024-02-21T07:31:55;2.27;;;1.90;;
45420;SDS011;55462;47.042;8.292;2024-02-21T07:34:20;2.60;;;1.93;;
45420;SDS011;55462;47.042;8.292;2024-02-21T07:36:46;2.03;;;1.87;;
45420;SDS011;55462;47.042;8.292;2024-02-21T07:39:11;3.00;;;2.20;;
45420;SDS011;55462;47.042;8.292;2024-02-21T07:41:40;2.97;;;2.33;;
45420;SDS011;55462;47.042;8.292;2024-02-21T07:44:06;6.50;;;2.70;;
45420;SDS011;55462;47.042;8.292;2024-02-21T07:46:31;3.25;;;2.22;;
45420;SDS011;55462;47.042;8.292;2024-02-21T07:48:56;2.35;;;2.15;;
45420;SDS011;55462;47.042;8.292;2024-02-21T07:51:22;6.20;;;2.00;;
45420;SDS011;55462;47.042;8.292;2024-02-21T07:53:47;3.83;;;1.77;;
45420;SDS011;55462;47.042;8.292;2024-02-21T07:56:13;2.72;;;2.13;;
45420;SDS011;55462;47.042;8.292;2024-02-21T07:58:40;3.03;;;1.80;;
45420;SDS011;55462;47.042;8.292;2024-02-21T08:01:05;3.03;;;2.13;;
45420;SDS011;55462;47.042;8.292;2024-02-21T08:03:31;3.22;;;1.95;;
45420;SDS011;55462;47.042;8.292;2024-02-21T08:05:56;2.65;;;1.80;;
45420;SDS011;55462;47.042;8.292;2024-02-21T08:08:21;1.77;;;1.50;;
45420;SDS011;55462;47.042;8.292;2024-02-21T08:10:47;1.63;;;1.50;;
45420;SDS011;55462;47.042;8.292;2024-02-21T08:13:13;1.48;;;1.38;;
45420;SDS011;55462;47.042;8.292;2024-02-21T08:15:39;5.22;;;1.70;;
45420;SDS011;55462;47.042;8.292;2024-02-21T08:18:06;1.97;;;1.60;;
45420;SDS011;55462;47.042;8.292;2024-02-21T08:20:31;3.00;;;1.38;;
45420;SDS011;55462;47.042;8.292;2024-02-21T08:22:57;2.53;;;1.45;;
45420;SDS011;55462;47.042;8.292;2024-02-21T08:25:22;2.03;;;1.83;;
45420;SDS011;55462;47.042;8.292;2024-02-21T08:27:47;2.28;;;1.40;;
45420;SDS011;55462;47.042;8.292;2024-02-21T08:30:13;2.90;;;1.50;;
45420;SDS011;55462;47.042;8.292;2024-02-21T08:32:38;2.53;;;1.65;;
45420;SDS011;55462;47.042;8.292;2024-02-21T08:35:04;1.38;;;1.20;;
45420;SDS011;55462;47.042;8.292;2024-02-21T08:37:30;1.52;;;1.42;;
45420;SDS011;55462;47.042;8.292;2024-02-21T08:39:55;1.50;;;1.40;;
45420;SDS011;55462;47.042;8.292;2024-02-21T08:42:21;1.85;;;1.25;;
45420;SDS011;55462;47.042;8.292;2024-02-21T08:44:46;3.22;;;1.30;;
45420;SDS011;55462;47.042;8.292;2024-02-21T08:47:11;1.63;;;1.52;;
45420;SDS011;55462;47.042;8.292;2024-02-21T08:49:37;2.88;;;1.85;;
45420;SDS011;55462;47.042;8.292;2024-02-21T08:52:02;1.77;;;1.42;;
45420;SDS011;55462;47.042;8.292;2024-02-21T08:54:28;2.83;;;1.90;;
45420;SDS011;55462;47.042;8.292;2024-02-21T08:56:53;2.63;;;1.55;;
45420;SDS011;55462;47.042;8.292;2024-02-21T08:59:19;1.45;;;1.35;;
45420;SDS011;55462;47.042;8.292;2024-02-21T09:01:45;8.40;;;1.92;;
45420;SDS011;55462;47.042;8.292;2024-02-21T09:04:11;1.60;;;1.50;;
45420;SDS011;55462;47.042;8.292;2024-02-21T09:06:36;4.18;;;1.42;;
45420;SDS011;55462;47.042;8.292;2024-02-21T09:09:04;1.30;;;1.20;;
45420;SDS011;55462;47.042;8.292;2024-02-21T09:11:29;1.48;;;0.88;;
45420;SDS011;55462;47.042;8.292;2024-02-21T09:13:55;2.28;;;1.17;;
45420;SDS011;55462;47.042;8.292;2024-02-21T09:16:20;3.10;;;1.50;;
45420;SDS011;55462;47.042;8.292;2024-02-21T09:18:46;3.75;;;1.15;;
45420;SDS011;55462;47.042;8.292;2024-02-21T09:21:12;1.45;;;1.35;;
45420;SDS011;55462;47.042;8.292;2024-02-21T09:23:37;2.55;;;1.20;;
45420;SDS011;55462;47.042;8.292;2024-02-21T09:26:02;4.85;;;1.52;;
45420;SDS011;55462;47.042;8.292;2024-02-21T09:28:29;1.55;;;1.45;;
45420;SDS011;55462;47.042;8.292;2024-02-21T09:30:54;2.10;;;1.15;;
45420;SDS011;55462;47.042;8.292;2024-02-21T09:33:20;1.15;;;1.10;;
45420;SDS011;55462;47.042;8.292;2024-02-21T09:35:45;2.50;;;1.40;;
45420;SDS011;55462;47.042;8.292;2024-02-21T09:38:10;3.08;;;1.50;;
45420;SDS011;55462;47.042;8.292;2024-02-21T09:40:36;1.90;;;1.50;;
45420;SDS011;55462;47.042;8.292;2024-02-21T09:43:04;6.45;;;1.45;;
45420;SDS011;55462;47.042;8.292;2024-02-21T09:45:31;3.63;;;1.30;;
45420;SDS011;55462;47.042;8.292;2024-02-21T09:50:26;7.75;;;1.63;;
45420;SDS011;55462;47.042;8.292;2024-02-21T09:52:52;3.17;;;1.35;;
45420;SDS011;55462;47.042;8.292;2024-02-21T09:55:19;5.00;;;1.50;;
45420;SDS011;55462;47.042;8.292;2024-02-21T09:57:45;2.72;;;1.35;;
45420;SDS011;55462;47.042;8.292;2024-02-21T10:00:10;3.15;;;1.98;;
45420;SDS011;55462;47.042;8.292;2024-02-21T10:02:38;2.90;;;1.80;;
45420;SDS011;55462;47.042;8.292;2024-02-21T10:05:04;3.60;;;2.20;;
45420;SDS011;55462;47.042;8.292;2024-02-21T10:07:33;1.70;;;1.60;;
45420;SDS011;55462;47.042;8.292;2024-02-21T10:10:05;2.05;;;1.95;;
45420;SDS011;55462;47.042;8.292;2024-02-21T10:12:31;2.80;;;1.95;;
45420;SDS011;55462;47.042;8.292;2024-02-21T10:15:03;4.28;;;1.98;;
45420;SDS011;55462;47.042;8.292;2024-02-21T10:17:29;1.85;;;1.75;;
45420;SDS011;55462;47.042;8.292;2024-02-21T10:19:55;1.95;;;1.75;;
45420;SDS011;55462;47.042;8.292;2024-02-21T10:22:20;3.65;;;2.08;;
45420;SDS011;55462;47.042;8.292;2024-02-21T10:24:46;1.95;;;1.75;;
45420;SDS011;55462;47.042;8.292;2024-02-21T10:27:11;4.50;;;1.90;;
45420;SDS011;55462;47.042;8.292;2024-02-21T10:29:37;4.10;;;1.73;;
45420;SDS011;55462;47.042;8.292;2024-02-21T10:32:06;5.30;;;1.80;;
45420;SDS011;55462;47.042;8.292;2024-02-21T10:34:38;2.13;;;1.45;;
45420;SDS011;55462;47.042;8.292;2024-02-21T10:37:10;4.65;;;1.50;;
45420;SDS011;55462;47.042;8.292;2024-02-21T10:39:37;2.53;;;1.75;;
45420;SDS011;55462;47.042;8.292;2024-02-21T10:42:03;4.40;;;1.70;;
45420;SDS011;55462;47.042;8.292;2024-02-21T10:44:30;2.63;;;1.90;;
45420;SDS011;55462;47.042;8.292;2024-02-21T10:46:57;2.72;;;1.70;;
45420;SDS011;55462;47.042;8.292;2024-02-21T10:49:23;2.33;;;1.45;;
45420;SDS011;55462;47.042;8.292;2024-02-21T10:51:55;2.20;;;1.70;;
45420;SDS011;55462;47.042;8.292;2024-02-21T10:57:12;4.95;;;1.77;;
45420;SDS011;55462;47.042;8.292;2024-02-21T10:59:39;4.00;;;1.90;;
45420;SDS011;55462;47.042;8.292;2024-02-21T11:02:05;5.18;;;1.88;;
45420;SDS011;55462;47.042;8.292;2024-02-21T11:04:30;2.83;;;2.13;;
45420;SDS011;55462;47.042;8.292;2024-02-21T11:06:56;2.92;;;2.47;;
45420;SDS011;55462;47.042;8.292;2024-02-21T11:09:29;2.53;;;2.33;;
45420;SDS011;55462;47.042;8.292;2024-02-21T11:11:56;4.65;;;3.10;;
45420;SDS011;55462;47.042;8.292;2024-02-21T11:14:25;4.93;;;3.58;;
45420;SDS011;55462;47.042;8.292;2024-02-21T11:16:51;3.78;;;3.00;;
45420;SDS011;55462;47.042;8.292;2024-02-21T11:19:24;4.65;;;3.00;;
45420;SDS011;55462;47.042;8.292;2024-02-21T11:21:51;3.70;;;3.17;;
45420;SDS011;55462;47.042;8.292;2024-02-21T11:24:27;3.80;;;3.30;;
45420;SDS011;55462;47.042;8.292;2024-02-21T11:26:56;5.88;;;3.35;;
45420;SDS011;55462;47.042;8.292;2024-02-21T11:29:25;6.13;;;3.45;;
45420;SDS011;55462;47.042;8.292;2024-02-21T11:31:51;3.88;;;3.53;;
45420;SDS011;55462;47.042;8.292;2024-02-21T11:34:17;4.50;;;4.00;;
45420;SDS011;55462;47.042;8.292;2024-02-21T11:36:50;7.60;;;3.95;;
45420;SDS011;55462;47.042;8.292;2024-02-21T11:39:24;6.75;;;4.57;;
45420;SDS011;55462;47.042;8.292;2024-02-21T11:42:00;8.43;;;4.63;;
45420;SDS011;55462;47.042;8.292;2024-02-21T11:44:29;5.60;;;4.60;;
45420;SDS011;55462;47.042;8.292;2024-02-21T11:46:55;6.60;;;4.55;;
45420;SDS011;55462;47.042;8.292;2024-02-21T11:49:20;4.63;;;3.70;;
45420;SDS011;55462;47.042;8.292;2024-02-21T11:51:46;4.05;;;3.45;;
45420;SDS011;55462;47.042;8.292;2024-02-21T11:54:11;3.22;;;2.95;;
45420;SDS011;55462;47.042;8.292;2024-02-21T11:56:38;3.30;;;2.97;;
45420;SDS011;55462;47.042;8.292;2024-02-21T11:59:03;7.25;;;3.22;;
45420;SDS011;55462;47.042;8.292;2024-02-21T12:01:31;5.93;;;3.03;;
45420;SDS011;55462;47.042;8.292;2024-02-21T12:03:56;3.90;;;3.35;;
45420;SDS011;55462;47.042;8.292;2024-02-21T12:06:22;3.28;;;2.60;;
45420;SDS011;55462;47.042;8.292;2024-02-21T12:08:47;2.53;;;2.33;;
45420;SDS011;55462;47.042;8.292;2024-02-21T12:11:19;2.40;;;2.20;;
45420;SDS011;55462;47.042;8.292;2024-02-21T12:13:46;2.35;;;2.17;;
45420;SDS011;55462;47.042;8.292;2024-02-21T12:16:12;2.58;;;2.38;;
45420;SDS011;55462;47.042;8.292;2024-02-21T12:18:40;2.78;;;1.98;;
45420;SDS011;55462;47.042;8.292;2024-02-21T12:21:05;3.17;;;2.20;;
45420;SDS011;55462;47.042;8.292;2024-02-21T12:23:30;3.65;;;3.10;;
45420;SDS011;55462;47.042;8.292;2024-02-21T12:25:56;2.28;;;2.00;;
45420;SDS011;55462;47.042;8.292;2024-02-21T12:28:21;4.22;;;2.42;;
45420;SDS011;55462;47.042;8.292;2024-02-21T12:30:47;4.07;;;2.38;;
45420;SDS011;55462;47.042;8.292;2024-02-21T12:33:12;5.80;;;2.25;;
45420;SDS011;55462;47.042;8.292;2024-02-21T12:35:39;2.47;;;2.28;;
45420;SDS011;55462;47.042;8.292;2024-02-21T12:38:04;3.78;;;2.45;;
45420;SDS011;55462;47.042;8.292;2024-02-21T12:40:29;4.72;;;2.53;;
45420;SDS011;55462;47.042;8.292;2024-02-21T12:42:59;4.00;;;2.25;;
45420;SDS011;55462;47.042;8.292;2024-02-21T12:45:25;2.20;;;2.10;;
45420;SDS011;55462;47.042;8.292;2024-02-21T12:47:50;3.63;;;2.55;;
45420;SDS011;55462;47.042;8.292;2024-02-21T12:50:16;2.47;;;2.33;;
45420;SDS011;55462;47.042;8.292;2024-02-21T12:52:41;2.85;;;2.38;;
45420;SDS011;55462;47.042;8.292;2024-02-21T12:55:06;2.78;;;2.38;;
45420;SDS011;55462;47.042;8.292;2024-02-21T12:57:35;3.55;;;2.33;;
45420;SDS011;55462;47.042;8.292;2024-02-21T13:00:00;2.95;;;2.35;;
45420;SDS011;55462;47.042;8.292;2024-02-21T13:02:25;4.13;;;2.65;;
45420;SDS011;55462;47.042;8.292;2024-02-21T13:04:51;3.15;;;2.75;;
45420;SDS011;55462;47.042;8.292;2024-02-21T13:07:16;4.75;;;2.30;;
45420;SDS011;55462;47.042;8.292;2024-02-21T13:09:41;5.63;;;2.70;;
45420;SDS011;55462;47.042;8.292;2024-02-21T13:12:07;2.72;;;2.53;;
45420;SDS011;55462;47.042;8.292;2024-02-21T13:14:32;5.47;;;2.90;;
45420;SDS011;55462;47.042;8.292;2024-02-21T13:17:00;3.00;;;2.70;;
45420;SDS011;55462;47.042;8.292;2024-02-21T13:19:25;3.15;;;2.70;;
45420;SDS011;55462;47.042;8.292;2024-02-21T13:21:50;3.03;;;2.72;;
45420;SDS011;55462;47.042;8.292;2024-02-21T13:24:16;3.08;;;2.78;;
45420;SDS011;55462;47.042;8.292;2024-02-21T13:26:41;3.88;;;3.28;;
45420;SDS011;55462;47.042;8.292;2024-02-21T13:29:06;2.70;;;2.50;;
45420;SDS011;55462;47.042;8.292;2024-02-21T13:31:31;3.03;;;2.83;;
45420;SDS011;55462;47.042;8.292;2024-02-21T13:33:57;3.53;;;3.15;;
45420;SDS011;55462;47.042;8.292;2024-02-21T13:36:22;2.95;;;2.72;;
45420;SDS011;55462;47.042;8.292;2024-02-21T13:38:48;3.03;;;2.75;;
45420;SDS011;55462;47.042;8.292;2024-02-21T13:41:14;4.22;;;2.97;;
45420;SDS011;55462;47.042;8.292;2024-02-21T13:43:39;5.80;;;3.08;;
45420;SDS011;55462;47.042;8.292;2024-02-21T13:46:04;3.00;;;2.70;;
45420;SDS011;55462;47.042;8.292;2024-02-21T13:48:34;6.15;;;2.78;;
45420;SDS011;55462;47.042;8.292;2024-02-21T13:51:00;3.40;;;2.67;;
45420;SDS011;55462;47.042;8.292;2024-02-21T13:53:27;2.72;;;2.53;;
45420;SDS011;55462;47.042;8.292;2024-02-21T13:55:53;2.80;;;2.60;;
45420;SDS011;55462;47.042;8.292;2024-02-21T13:58:18;4.30;;;2.50;;
45420;SDS011;55462;47.042;8.292;2024-02-21T14:00:43;4.35;;;2.65;;
45420;SDS011;55462;47.042;8.292;2024-02-21T14:03:09;3.05;;;2.75;;
45420;SDS011;55462;47.042;8.292;2024-02-21T14:05:34;3.45;;;3.10;;
45420;SDS011;55462;47.042;8.292;2024-02-21T14:08:00;3.38;;;3.08;;
45420;SDS011;55462;47.042;8.292;2024-02-21T14:10:25;4.72;;;3.25;;
45420;SDS011;55462;47.042;8.292;2024-02-21T14:12:50;3.42;;;2.75;;
45420;SDS011;55462;47.042;8.292;2024-02-21T14:15:16;4.93;;;2.50;;
45420;SDS011;55462;47.042;8.292;2024-02-21T14:17:41;4.68;;;3.15;;
45420;SDS011;55462;47.042;8.292;2024-02-21T14:20:07;3.00;;;2.70;;
45420;SDS011;55462;47.042;8.292;2024-02-21T14:22:33;5.65;;;2.75;;
45420;SDS011;55462;47.042;8.292;2024-02-21T14:24:59;4.07;;;2.33;;
45420;SDS011;55462;47.042;8.292;2024-02-21T14:27:25;3.30;;;2.90;;
45420;SDS011;55462;47.042;8.292;2024-02-21T14:29:50;2.50;;;2.30;;
45420;SDS011;55462;47.042;8.292;2024-02-21T14:32:15;2.28;;;2.08;;
45420;SDS011;55462;47.042;8.292;2024-02-21T14:34:41;2.85;;;2.63;;
45420;SDS011;55462;47.042;8.292;2024-02-21T14:37:06;4.55;;;2.60;;
45420;SDS011;55462;47.042;8.292;2024-02-21T14:39:31;3.03;;;2.72;;
45420;SDS011;55462;47.042;8.292;2024-02-21T14:41:59;3.55;;;2.60;;
45420;SDS011;55462;47.042;8.292;2024-02-21T14:44:25;2.78;;;2.58;;
45420;SDS011;55462;47.042;8.292;2024-02-21T14:46:50;3.78;;;2.72;;